Will Rogers World Airport
KOKC : now visible

Airfield :











YOU CAN JOIN US ON...

 
LOGIN :

Register | Disclaimer

   EN    FR    IT 

 









Legend :    VFR   Marginal VFR   IFR   Intensive IFR   Very Intensive IFR
Visi :
Ceiling :
>= 8 km
>= 3000ft
5 to 8 km
1000 to 3000 ft
1500m to 5 km
500 to 1000 ft
800 to 1500m
200 to 500 ft
< 800m
< 200 ft
Symbols :   Thunderstorms  Fog  Heavy snow  Heavy precipitations  Wind > 20 kt






- Airport Elevation : 1295 ft
- IATA code : OKC


KOKC - Will Rogers World

CURRENT METAR :
  • 042152Z 09012G18KT 10SM FEW250 27/14 A3005 RMK AO2 SLP164 T02720139

EXPIRED METARs :
  • 042052Z 11011KT 10SM FEW250 27/14 A3007 RMK AO2 SLP171 T02670139 58015
  • 041952Z 12011KT 10SM FEW250 26/13 A3009 RMK AO2 SLP177 T02610128

TAF KOKC
Valid from the 04 at 18:00 until the 05 at 18:00 UTC


041737Z 0418/0518 10008KT P6SM SCT060 OVC080
FM042100 10010KT P6SM SCT250
FM050600 08007KT P6SM OVC100
TEMPO 0509/0512 3SM TSRA BKN050CB OVC080
FM051200 12007KT 5SM -RA OVC070
FM051400 13008KT P6SM OVC025
KZFW FIR / North America



MET'MAP, your aeronautical weather chart ! - Copyright ORBIFLY December 2007 - Disclaimer

ORBIFLY MET'MAP TEAM :

Programming & Development : Alexandra Zaïnal
Concept & original design : Baudouin d'Aumeries
Assistance for programming : Marc-Olivier Méhu
Technical & hardware support : Manuel Goepfert

Contact : metmap@orbifly.com




SOURCES & CREDITS :

   NOAA       Earth
Advisory